createdAt,value
2018-12-27T00:02:05.696Z,4.45
2018-12-27T00:04:35.377Z,4.43
2018-12-27T00:07:07.230Z,4.42
2018-12-27T00:09:36.915Z,4.43
2018-12-27T00:12:06.589Z,4.41
2018-12-27T00:14:36.283Z,4.42
2018-12-27T00:17:05.989Z,4.40
2018-12-27T00:19:35.667Z,4.35
2018-12-27T00:22:05.407Z,4.33
2018-12-27T00:24:35.082Z,4.33
2018-12-27T00:27:05.600Z,4.35
2018-12-27T00:29:35.283Z,4.37
2018-12-27T00:32:05.642Z,4.37
2018-12-27T00:34:35.448Z,4.35
2018-12-27T00:37:05.789Z,4.35
2018-12-27T00:39:36.822Z,4.36
2018-12-27T00:42:06.625Z,4.35
2018-12-27T00:44:36.677Z,4.30
2018-12-27T00:47:06.498Z,4.33
2018-12-27T00:49:36.561Z,4.27
2018-12-27T00:52:06.377Z,4.28
2018-12-27T00:54:36.194Z,4.27
2018-12-27T00:57:05.998Z,4.33
2018-12-27T00:59:35.807Z,4.35
2018-12-27T01:02:05.873Z,4.39
2018-12-27T01:04:35.696Z,4.40
2018-12-27T01:07:05.509Z,4.43
2018-12-27T01:09:35.323Z,4.43
2018-12-27T01:12:05.224Z,4.46
2018-12-27T01:14:35.030Z,4.45
2018-12-27T01:17:05.793Z,4.46
2018-12-27T01:19:35.565Z,4.46
2018-12-27T01:22:05.510Z,4.47
2018-12-27T01:24:35.322Z,4.46
2018-12-27T01:27:05.760Z,4.45
2018-12-27T01:29:35.809Z,4.44
2018-12-27T01:32:05.617Z,4.39
2018-12-27T01:34:35.684Z,4.40
2018-12-27T01:37:05.889Z,4.38
2018-12-27T01:39:35.718Z,4.35
2018-12-27T01:42:06.012Z,4.37
2018-12-27T01:44:35.824Z,4.33
2018-12-27T01:47:06.318Z,4.34
2018-12-27T01:49:36.351Z,4.30
2018-12-27T01:52:06.160Z,4.29
2018-12-27T01:54:35.994Z,4.27
2018-12-27T01:57:08.138Z,4.30
2018-12-27T01:59:37.955Z,4.31
2018-12-27T02:02:07.768Z,4.32
2018-12-27T02:04:37.567Z,4.32
2018-12-27T02:07:07.385Z,4.31
2018-12-27T02:09:37.197Z,4.34
2018-12-27T02:12:07.003Z,4.34
2018-12-27T02:14:36.794Z,4.33
2018-12-27T02:17:06.608Z,4.36
2018-12-27T02:19:36.505Z,4.36
2018-12-27T02:22:07.758Z,4.30
2018-12-27T02:24:37.582Z,4.33
2018-12-27T02:27:07.400Z,4.33
2018-12-27T02:29:37.219Z,4.33
2018-12-27T02:32:07.280Z,4.31
2018-12-27T02:34:37.097Z,4.27
2018-12-27T02:37:06.906Z,4.24
2018-12-27T02:39:36.720Z,4.27
2018-12-27T02:42:06.535Z,4.28
2018-12-27T02:44:36.618Z,4.28
2018-12-27T02:47:06.688Z,4.28
2018-12-27T02:49:36.515Z,4.28
2018-12-27T02:52:06.331Z,4.24
2018-12-27T02:54:36.164Z,4.24
2018-12-27T02:57:06.230Z,4.25
2018-12-27T02:59:36.029Z,4.26
2018-12-27T03:02:05.850Z,4.25
2018-12-27T03:04:36.630Z,4.25
2018-12-27T03:07:06.442Z,4.21
2018-12-27T03:09:36.251Z,4.20
2018-12-27T03:12:06.063Z,4.20
2018-12-27T03:14:36.105Z,4.17
2018-12-27T03:17:06.097Z,4.14
2018-12-27T03:19:35.954Z,4.13
2018-12-27T03:22:08.959Z,4.14
2018-12-27T03:24:38.773Z,4.13
2018-12-27T03:27:08.577Z,4.07
2018-12-27T03:29:38.397Z,4.02
2018-12-27T03:32:08.222Z,3.97
2018-12-27T03:34:38.031Z,3.93
2018-12-27T03:37:07.832Z,3.89
2018-12-27T03:39:37.685Z,3.87
2018-12-27T03:42:07.495Z,3.84
2018-12-27T03:44:37.371Z,3.83
2018-12-27T03:47:07.115Z,3.79
2018-12-27T03:49:37.268Z,3.78
2018-12-27T03:52:07.070Z,3.76
2018-12-27T03:54:39.518Z,3.72
2018-12-27T03:57:09.336Z,3.69
2018-12-27T03:59:39.146Z,3.69
2018-12-27T04:02:08.946Z,3.70
2018-12-27T04:04:38.758Z,3.67
2018-12-27T04:07:08.562Z,3.68
2018-12-27T04:09:39.066Z,3.64
2018-12-27T04:12:08.883Z,3.64
2018-12-27T04:14:38.704Z,3.64
2018-12-27T04:17:08.423Z,3.63
2018-12-27T04:19:38.111Z,3.64
2018-12-27T04:22:08.009Z,3.60
2018-12-27T04:24:38.500Z,3.58
2018-12-27T04:27:08.185Z,3.56
2018-12-27T04:29:37.894Z,3.52
2018-12-27T04:32:08.233Z,3.52
2018-12-27T04:34:39.075Z,3.53
2018-12-27T04:37:09.110Z,3.54
2018-12-27T04:39:38.804Z,3.53
2018-12-27T04:42:08.817Z,3.53
2018-12-27T04:44:39.295Z,3.51
2018-12-27T04:47:08.970Z,3.52
2018-12-27T04:49:38.846Z,3.50
2018-12-27T04:52:08.569Z,3.49
2018-12-27T04:54:38.539Z,3.49
2018-12-27T04:57:08.268Z,3.47
2018-12-27T04:59:37.953Z,3.47
2018-12-27T05:02:08.624Z,3.44
2018-12-27T05:04:38.323Z,3.43
2018-12-27T05:07:08.042Z,3.36
2018-12-27T05:09:37.729Z,3.33
2018-12-27T05:12:07.419Z,3.30
2018-12-27T05:14:37.130Z,3.25
2018-12-27T05:17:07.574Z,3.24
2018-12-27T05:19:37.269Z,3.21
2018-12-27T05:22:08.022Z,3.20
2018-12-27T05:24:37.713Z,3.23
2018-12-27T05:27:07.404Z,3.23
2018-12-27T05:29:37.093Z,3.22
2018-12-27T05:32:06.763Z,3.21
2018-12-27T05:34:36.441Z,3.20
2018-12-27T05:37:06.138Z,3.21
2018-12-27T05:39:35.873Z,3.23
2018-12-27T05:42:05.551Z,3.24
2018-12-27T05:44:35.513Z,3.25
2018-12-27T05:47:05.378Z,3.23
2018-12-27T05:49:35.822Z,3.22
2018-12-27T05:52:05.517Z,3.20
2018-12-27T05:54:35.473Z,3.19
2018-12-27T05:57:05.350Z,3.18
2018-12-27T05:59:35.024Z,3.17
2018-12-27T06:02:05.787Z,3.15
2018-12-27T06:04:35.486Z,3.13
2018-12-27T06:07:05.524Z,3.13
2018-12-27T06:09:35.223Z,3.12
2018-12-27T06:12:05.871Z,3.10
2018-12-27T06:14:35.710Z,3.09
2018-12-27T06:17:05.703Z,3.10
2018-12-27T06:19:35.575Z,3.12
2018-12-27T06:22:05.345Z,3.13
2018-12-27T06:24:35.254Z,3.12
2018-12-27T06:27:05.608Z,3.10
2018-12-27T06:29:35.307Z,3.07
2018-12-27T06:32:05.545Z,3.06
2018-12-27T06:34:41.346Z,3.05
2018-12-27T06:37:06.634Z,3.13
2018-12-27T06:39:36.319Z,3.23
2018-12-27T06:42:06.361Z,3.23
2018-12-27T06:44:36.104Z,3.20
2018-12-27T06:47:06.320Z,3.14
2018-12-27T06:49:36.026Z,3.09
2018-12-27T06:52:05.722Z,3.10
2018-12-27T06:54:35.437Z,3.10
2018-12-27T06:57:05.254Z,3.11
2018-12-27T06:59:34.954Z,3.10
2018-12-27T07:02:05.386Z,3.06
2018-12-27T07:04:35.157Z,3.04
2018-12-27T07:07:05.824Z,3.05
2018-12-27T07:09:35.549Z,3.05
2018-12-27T07:12:05.638Z,3.04
2018-12-27T07:14:35.685Z,3.03
2018-12-27T07:17:05.373Z,2.98
2018-12-27T07:19:35.084Z,2.98
2018-12-27T07:22:04.909Z,3.00
2018-12-27T07:24:34.607Z,3.01
2018-12-27T07:27:04.306Z,3.01
2018-12-27T07:29:35.169Z,3.01
2018-12-27T07:32:05.533Z,3.05
2018-12-27T07:34:35.213Z,3.02
2018-12-27T07:37:11.370Z,2.98
2018-12-27T07:39:47.049Z,2.96
2018-12-27T07:42:16.746Z,2.95
2018-12-27T07:44:46.433Z,2.92
2018-12-27T07:47:16.131Z,2.89
2018-12-27T07:49:46.109Z,2.88
2018-12-27T07:52:15.805Z,2.85
2018-12-27T07:54:45.657Z,2.82
2018-12-27T07:57:18.788Z,2.83
2018-12-27T07:59:48.461Z,2.87
2018-12-27T08:05:05.433Z,2.92
2018-12-27T08:07:35.196Z,2.95
2018-12-27T08:10:05.656Z,2.97
2018-12-27T08:12:35.346Z,2.94
2018-12-27T08:15:06.518Z,2.94
2018-12-27T08:17:36.410Z,2.96
2018-12-27T08:20:07.015Z,2.97
2018-12-27T08:22:36.697Z,2.96
2018-12-27T08:25:06.685Z,2.94
2018-12-27T08:27:36.374Z,2.95
2018-12-27T08:30:08.167Z,2.97
2018-12-27T08:38:32.179Z,2.97
2018-12-27T08:41:01.877Z,2.98
2018-12-27T08:43:31.557Z,3.01
2018-12-27T08:46:01.230Z,3.01
2018-12-27T08:48:31.234Z,3.04
2018-12-27T08:53:48.928Z,3.07
2018-12-27T08:56:19.609Z,3.10
2018-12-27T08:58:49.374Z,3.09
2018-12-27T09:01:19.080Z,3.09
2018-12-27T09:03:48.778Z,3.11
2018-12-27T09:06:18.468Z,3.13
2018-12-27T09:08:48.198Z,3.13
2018-12-27T09:11:17.903Z,3.14
2018-12-27T09:13:47.883Z,3.17
2018-12-27T09:16:17.828Z,3.11
2018-12-27T09:18:47.869Z,3.07
2018-12-27T09:21:17.581Z,3.07
2018-12-27T09:23:47.353Z,3.11
2018-12-27T09:26:17.404Z,3.15
2018-12-27T09:28:47.499Z,3.23
2018-12-27T09:31:17.408Z,3.24
2018-12-27T09:33:47.118Z,3.27
2018-12-27T09:36:16.863Z,3.32
2018-12-27T09:38:46.556Z,3.35
2018-12-27T09:41:16.251Z,3.41
2018-12-27T09:43:45.933Z,3.48
2018-12-27T09:46:15.633Z,3.54
2018-12-27T09:48:45.539Z,3.60
2018-12-27T09:51:15.228Z,3.68
2018-12-27T09:53:46.101Z,3.75
2018-12-27T09:56:15.798Z,3.80
2018-12-27T09:58:45.828Z,3.86
2018-12-27T10:01:15.535Z,3.90
2018-12-27T10:03:47.103Z,3.96
2018-12-27T10:06:16.803Z,4.03
2018-12-27T10:08:46.509Z,4.09
2018-12-27T10:11:16.253Z,4.13
2018-12-27T10:13:45.949Z,4.16
2018-12-27T10:16:15.758Z,4.23
2018-12-27T10:18:45.524Z,4.29
2018-12-27T10:21:15.271Z,4.37
2018-12-27T10:23:45.208Z,4.42
2018-12-27T10:26:14.891Z,4.43
2018-12-27T10:28:44.585Z,4.48
2018-12-27T10:31:14.536Z,4.51
2018-12-27T10:33:44.227Z,4.56
2018-12-27T10:36:14.900Z,4.59
2018-12-27T10:38:44.585Z,4.63
2018-12-27T10:41:14.272Z,4.67
2018-12-27T10:43:43.964Z,4.67
2018-12-27T10:46:13.656Z,4.67
2018-12-27T10:48:43.335Z,4.73
2018-12-27T10:51:13.026Z,4.80
2018-12-27T10:53:42.737Z,4.83
2018-12-27T10:56:12.766Z,4.86
2018-12-27T10:58:42.462Z,4.88
2018-12-27T11:01:12.157Z,4.89
2018-12-27T11:03:41.867Z,4.94
2018-12-27T11:06:11.574Z,5.00
2018-12-27T11:08:41.590Z,5.05
2018-12-27T11:11:12.474Z,5.08
2018-12-27T11:13:42.158Z,5.10
2018-12-27T11:16:12.124Z,5.14
2018-12-27T11:18:41.824Z,5.17
2018-12-27T11:21:11.501Z,5.24
2018-12-27T11:23:41.280Z,5.28
2018-12-27T11:26:11.029Z,5.28
2018-12-27T11:28:40.717Z,5.29
2018-12-27T11:31:10.489Z,5.29
2018-12-27T11:33:40.169Z,5.33
2018-12-27T11:36:17.014Z,5.33
2018-12-27T11:38:41.250Z,5.32
2018-12-27T11:41:11.014Z,5.40
2018-12-27T11:43:40.731Z,5.45
2018-12-27T11:46:10.558Z,5.54
2018-12-27T11:48:40.255Z,5.60
2018-12-27T11:51:09.960Z,5.62
2018-12-27T11:53:39.910Z,5.63
2018-12-27T11:56:09.686Z,5.65
2018-12-27T11:58:39.387Z,5.69
2018-12-27T12:01:09.069Z,5.68
2018-12-27T12:03:39.007Z,5.73
2018-12-27T12:06:08.880Z,5.77
2018-12-27T12:08:38.570Z,5.82
2018-12-27T12:11:09.445Z,5.89
2018-12-27T12:13:39.146Z,5.96
2018-12-27T12:16:10.710Z,6.03
2018-12-27T12:18:40.404Z,6.09
2018-12-27T12:21:10.106Z,6.10
2018-12-27T12:23:39.833Z,6.14
2018-12-27T12:26:09.531Z,6.17
2018-12-27T12:28:39.553Z,6.24
2018-12-27T12:31:09.229Z,6.32
2018-12-27T12:33:38.931Z,6.41
2018-12-27T12:36:10.910Z,6.46
2018-12-27T12:38:40.889Z,6.53
2018-12-27T12:41:10.606Z,6.52
2018-12-27T12:43:40.755Z,6.49
2018-12-27T12:46:10.593Z,6.48
2018-12-27T12:48:40.362Z,6.47
2018-12-27T12:51:10.081Z,6.49
2018-12-27T12:53:39.783Z,6.52
2018-12-27T12:56:09.475Z,6.54
2018-12-27T12:58:39.158Z,6.54
2018-12-27T13:01:08.929Z,6.52
2018-12-27T13:03:38.832Z,6.54
2018-12-27T13:06:08.517Z,6.58
2018-12-27T13:08:38.227Z,6.58
2018-12-27T13:11:07.892Z,6.58
2018-12-27T13:13:37.589Z,6.61
2018-12-27T13:16:07.300Z,6.59
2018-12-27T13:18:36.976Z,6.61
2018-12-27T13:21:06.657Z,6.64
2018-12-27T13:23:36.350Z,6.66
2018-12-27T13:26:06.126Z,6.67
2018-12-27T13:28:35.878Z,6.64
2018-12-27T13:31:05.588Z,6.63
2018-12-27T13:33:35.280Z,6.64
2018-12-27T13:36:05.673Z,6.67
2018-12-27T13:38:35.363Z,6.68
2018-12-27T13:41:05.051Z,6.72
2018-12-27T13:43:34.739Z,6.73
2018-12-27T13:46:05.390Z,6.73
2018-12-27T13:48:35.067Z,6.75
2018-12-27T13:51:05.022Z,6.73
2018-12-27T13:53:34.717Z,6.78
2018-12-27T13:56:04.393Z,6.80
2018-12-27T13:58:34.082Z,6.78
2018-12-27T14:01:03.768Z,6.81
2018-12-27T14:03:33.530Z,6.80
2018-12-27T14:06:03.212Z,6.79
2018-12-27T14:08:34.118Z,6.78
2018-12-27T14:11:03.793Z,6.76
2018-12-27T14:13:33.484Z,6.73
2018-12-27T14:16:03.319Z,6.62
2018-12-27T14:18:32.990Z,6.62
2018-12-27T14:21:02.688Z,6.57
2018-12-27T14:23:44.178Z,6.53
2018-12-27T14:26:18.839Z,6.49
2018-12-27T14:28:48.529Z,6.46
2018-12-27T14:31:18.222Z,6.44
2018-12-27T14:33:47.924Z,6.43
2018-12-27T14:36:17.629Z,6.41
2018-12-27T14:38:47.310Z,6.41
2018-12-27T14:41:17.023Z,6.36
2018-12-27T14:43:46.710Z,6.34
2018-12-27T14:46:16.406Z,6.37
2018-12-27T14:48:46.194Z,6.34
2018-12-27T14:51:15.874Z,6.30
2018-12-27T14:54:03.431Z,6.28
2018-12-27T14:56:33.113Z,6.26
2018-12-27T14:59:02.811Z,6.24
2018-12-27T15:01:32.601Z,6.13
2018-12-27T15:04:02.258Z,6.13
2018-12-27T15:06:31.937Z,6.15
2018-12-27T15:09:01.877Z,6.16
2018-12-27T15:11:32.835Z,6.14
2018-12-27T15:14:02.553Z,6.10
2018-12-27T15:16:32.241Z,6.03
2018-12-27T15:19:02.083Z,5.98
2018-12-27T15:21:31.759Z,5.96
2018-12-27T15:24:01.452Z,5.98
2018-12-27T15:26:31.247Z,5.94
2018-12-27T15:29:00.947Z,5.99
2018-12-27T15:31:30.645Z,5.99
2018-12-27T15:34:00.326Z,6.04
2018-12-27T15:36:30.023Z,6.05
2018-12-27T15:39:00.584Z,6.04
2018-12-27T15:41:31.908Z,6.03
2018-12-27T15:44:01.814Z,6.00
2018-12-27T15:46:32.439Z,5.94
2018-12-27T15:49:02.147Z,5.92
2018-12-27T15:51:31.841Z,5.89
2018-12-27T15:54:01.632Z,5.85
2018-12-27T15:56:31.331Z,5.84
2018-12-27T15:59:01.430Z,5.82
2018-12-27T16:01:31.124Z,5.82
2018-12-27T16:04:00.928Z,5.84
2018-12-27T16:06:30.622Z,5.84
2018-12-27T16:09:00.317Z,5.84
2018-12-27T16:11:31.951Z,5.83
2018-12-27T16:14:01.805Z,5.80
2018-12-27T16:16:31.606Z,5.77
2018-12-27T16:19:01.577Z,5.76
2018-12-27T16:21:31.343Z,5.78
2018-12-27T16:24:01.022Z,5.79
2018-12-27T16:26:30.713Z,5.78
2018-12-27T16:29:01.493Z,5.78
2018-12-27T16:31:36.698Z,5.77
2018-12-27T16:34:06.405Z,5.78
2018-12-27T16:36:36.092Z,5.77
2018-12-27T16:39:07.248Z,5.76
2018-12-27T16:41:36.951Z,5.71
2018-12-27T16:44:06.647Z,5.67
2018-12-27T16:46:36.692Z,5.66
2018-12-27T16:49:06.402Z,5.65
2018-12-27T16:51:36.159Z,5.65
2018-12-27T16:54:05.864Z,5.64
2018-12-27T16:56:35.554Z,5.54
2018-12-27T16:59:05.459Z,5.49
2018-12-27T17:01:35.404Z,5.50
2018-12-27T17:04:05.186Z,5.51
2018-12-27T17:06:34.881Z,5.48
2018-12-27T17:09:06.237Z,5.45
2018-12-27T17:11:36.165Z,5.43
2018-12-27T17:14:05.852Z,5.42
2018-12-27T17:16:36.610Z,5.41
2018-12-27T17:19:06.320Z,5.38
2018-12-27T17:21:36.127Z,5.38
2018-12-27T17:24:06.156Z,5.36
2018-12-27T17:26:35.851Z,5.34
2018-12-27T17:29:05.546Z,5.32
2018-12-27T17:31:35.475Z,5.29
2018-12-27T17:34:05.564Z,5.27
2018-12-27T17:36:36.343Z,5.26
2018-12-27T17:39:07.770Z,5.26
2018-12-27T17:41:37.590Z,5.23
2018-12-27T17:44:07.295Z,5.21
2018-12-27T17:46:37.105Z,5.18
2018-12-27T17:49:06.802Z,5.14
2018-12-27T17:51:36.580Z,5.08
2018-12-27T17:54:06.274Z,5.06
2018-12-27T17:56:35.957Z,5.04
2018-12-27T17:59:05.724Z,4.98
2018-12-27T18:01:35.664Z,4.95
2018-12-27T18:04:05.770Z,4.89
2018-12-27T18:06:35.503Z,4.86
2018-12-27T18:09:07.361Z,4.83
2018-12-27T18:11:37.066Z,4.79
2018-12-27T18:14:06.760Z,4.75
2018-12-27T18:16:36.806Z,4.72
2018-12-27T18:22:00.745Z,4.71
2018-12-27T18:24:30.443Z,4.69
2018-12-27T18:27:00.140Z,4.66
2018-12-27T18:29:29.845Z,4.61
2018-12-27T18:31:59.533Z,4.57
2018-12-27T18:34:29.430Z,4.57
2018-12-27T18:36:59.142Z,4.56
2018-12-27T18:39:28.830Z,4.60
2018-12-27T18:41:58.684Z,4.67
2018-12-27T18:44:28.665Z,4.69
2018-12-27T18:46:58.358Z,4.68
2018-12-27T18:49:28.058Z,4.67
2018-12-27T18:51:58.028Z,4.65
2018-12-27T18:54:27.813Z,4.63
2018-12-27T18:56:57.524Z,4.61
2018-12-27T18:59:27.330Z,4.58
2018-12-27T19:01:57.039Z,4.56
2018-12-27T19:04:26.747Z,4.53
2018-12-27T19:06:56.610Z,4.47
2018-12-27T19:09:26.303Z,4.46
2018-12-27T19:12:31.846Z,4.46
2018-12-27T19:15:05.489Z,4.45
2018-12-27T19:17:43.961Z,4.42
2018-12-27T19:20:13.774Z,4.43
2018-12-27T19:22:51.192Z,4.43
2018-12-27T19:25:20.875Z,4.42
2018-12-27T19:27:50.579Z,4.41
2018-12-27T19:30:20.263Z,4.42
2018-12-27T19:32:49.939Z,4.42
2018-12-27T19:35:19.887Z,4.44
2018-12-27T19:37:52.279Z,4.44
2018-12-27T19:40:20.984Z,4.43
2018-12-27T19:42:50.680Z,4.42
2018-12-27T19:45:20.636Z,4.41
2018-12-27T19:47:50.342Z,4.40
2018-12-27T19:50:20.110Z,4.41
2018-12-27T19:52:49.882Z,4.41
2018-12-27T19:55:19.877Z,4.39
2018-12-27T19:57:49.628Z,4.35
2018-12-27T20:00:19.315Z,4.28
2018-12-27T20:02:49.067Z,4.25
2018-12-27T20:05:18.829Z,4.21
2018-12-27T20:07:48.499Z,4.15
2018-12-27T20:10:18.208Z,4.13
2018-12-27T20:12:47.881Z,4.14
2018-12-27T20:15:17.621Z,4.14
2018-12-27T20:17:47.335Z,4.14
2018-12-27T20:20:17.009Z,4.07
2018-12-27T20:22:46.689Z,4.10
2018-12-27T20:25:16.381Z,4.07
2018-12-27T20:27:46.073Z,4.03
2018-12-27T20:30:16.363Z,3.98
2018-12-27T20:32:46.050Z,3.97
2018-12-27T20:35:16.708Z,3.99
2018-12-27T20:37:46.402Z,3.99
2018-12-27T20:40:16.085Z,3.98
2018-12-27T20:42:45.774Z,3.98
2018-12-27T20:45:15.465Z,3.97
2018-12-27T20:47:45.404Z,3.97
